createdAt,value
2022-09-17T00:02:13.886Z,100324.91
2022-09-17T00:04:48.386Z,100319.09
2022-09-17T00:07:20.263Z,100309.03
2022-09-17T00:09:52.130Z,100328.28
2022-09-17T00:12:24.077Z,100320.59
2022-09-17T00:14:56.005Z,100315.38
2022-09-17T00:17:27.974Z,100325.41
2022-09-17T00:19:59.887Z,100328.59
2022-09-17T00:22:31.948Z,100326.72
2022-09-17T00:25:05.181Z,100327.50
2022-09-17T00:27:37.055Z,100323.16
2022-09-17T00:30:09.974Z,100335.06
2022-09-17T00:32:41.876Z,100340.06
2022-09-17T00:35:14.092Z,100340.06
2022-09-17T00:37:46.075Z,100341.72
2022-09-17T00:40:19.301Z,100337.50
2022-09-17T00:42:53.346Z,100343.31
2022-09-17T00:45:25.533Z,100341.22
2022-09-17T00:48:06.071Z,100348.56
2022-09-17T00:50:40.917Z,100349.00
2022-09-17T00:53:15.815Z,100346.72
2022-09-17T00:55:53.694Z,100345.06
2022-09-17T00:58:26.339Z,100356.38
2022-09-17T01:00:59.292Z,100359.34
2022-09-17T01:03:32.710Z,100352.91
2022-09-17T01:06:33.628Z,100355.66
2022-09-17T01:09:14.541Z,100352.94
2022-09-17T01:11:53.887Z,100356.13
2022-09-17T01:14:53.063Z,100351.09
2022-09-17T01:17:30.170Z,100353.69
2022-09-17T01:20:33.483Z,100348.66
2022-09-17T01:23:05.222Z,100352.22
2022-09-17T01:26:01.344Z,100349.72
2022-09-17T01:28:33.597Z,100353.50
2022-09-17T01:31:09.711Z,100349.50
2022-09-17T01:33:46.498Z,100357.22
2022-09-17T01:36:27.451Z,100361.59
2022-09-17T01:39:16.390Z,100355.13
2022-09-17T01:41:55.264Z,100357.88
2022-09-17T01:44:30.249Z,100354.97
2022-09-17T01:47:10.431Z,100363.13
2022-09-17T01:49:42.565Z,100357.94
2022-09-17T01:52:15.577Z,100354.13
2022-09-17T01:54:50.765Z,100364.38
2022-09-17T01:57:27.818Z,100366.66
2022-09-17T02:00:07.273Z,100368.75
2022-09-17T02:03:02.768Z,100373.34
2022-09-17T02:05:40.360Z,100373.97
2022-09-17T02:08:21.025Z,100377.53
2022-09-17T02:10:58.578Z,100376.69
2022-09-17T02:13:41.040Z,100367.09
2022-09-17T02:16:23.074Z,100374.41
2022-09-17T02:18:58.768Z,100369.66
2022-09-17T02:21:39.176Z,100369.03
2022-09-17T02:24:11.157Z,100366.75
2022-09-17T02:26:46.461Z,100375.94
2022-09-17T02:29:38.887Z,100381.19
2022-09-17T02:32:12.312Z,100382.69
2022-09-17T02:34:44.262Z,100383.28
2022-09-17T02:37:16.242Z,100386.63
2022-09-17T02:39:48.188Z,100378.47
2022-09-17T02:42:26.648Z,100388.91
2022-09-17T02:45:33.976Z,100382.25
2022-09-17T02:48:24.988Z,100378.31
2022-09-17T02:51:39.156Z,100375.59
2022-09-17T02:54:29.435Z,100377.09
2022-09-17T02:57:13.351Z,100380.00
2022-09-17T03:00:09.482Z,100375.41
2022-09-17T03:02:45.276Z,100385.22
2022-09-17T03:05:19.266Z,100374.13
2022-09-17T03:07:51.580Z,100380.19
2022-09-17T03:10:23.957Z,100376.63
2022-09-17T03:12:55.877Z,100377.69
2022-09-17T03:15:28.396Z,100372.44
2022-09-17T03:18:00.265Z,100375.63
2022-09-17T03:20:32.203Z,100380.22
2022-09-17T03:23:04.064Z,100368.31
2022-09-17T03:25:36.089Z,100379.81
2022-09-17T03:28:08.366Z,100389.19
2022-09-17T03:30:40.414Z,100384.78
2022-09-17T03:33:14.835Z,100376.63
2022-09-17T03:35:47.056Z,100374.75
2022-09-17T03:38:18.974Z,100381.84
2022-09-17T03:41:02.300Z,100392.94
2022-09-17T03:43:34.577Z,100402.13
2022-09-17T03:46:06.580Z,100397.75
2022-09-17T03:48:39.668Z,100395.66
2022-09-17T03:51:11.999Z,100391.44
2022-09-17T03:53:43.830Z,100391.44
2022-09-17T03:56:16.176Z,100393.97
2022-09-17T03:58:48.143Z,100397.16
2022-09-17T04:01:20.001Z,100397.34
2022-09-17T04:03:51.903Z,100399.84
2022-09-17T04:06:23.882Z,100399.69
2022-09-17T04:08:56.910Z,100399.03
2022-09-17T04:11:28.839Z,100392.38
2022-09-17T04:14:00.671Z,100392.38
2022-09-17T04:16:32.570Z,100401.56
2022-09-17T04:19:04.599Z,100398.47
2022-09-17T04:21:36.541Z,100406.63
2022-09-17T04:24:09.005Z,100404.97
2022-09-17T04:26:41.078Z,100399.97
2022-09-17T04:29:13.051Z,100394.34
2022-09-17T04:31:45.192Z,100406.69
2022-09-17T04:34:17.094Z,100408.19
2022-09-17T04:36:48.964Z,100426.75
2022-09-17T04:39:20.864Z,100414.25
2022-09-17T04:41:52.733Z,100431.59
2022-09-17T04:44:25.102Z,100432.19
2022-09-17T04:46:57.135Z,100422.81
2022-09-17T04:49:31.041Z,100423.84
2022-09-17T04:52:03.286Z,100435.13
2022-09-17T04:54:35.542Z,100435.97
2022-09-17T04:57:07.428Z,100437.63
2022-09-17T04:59:39.374Z,100441.41
2022-09-17T05:02:11.811Z,100439.53
2022-09-17T05:04:43.795Z,100445.56
2022-09-17T05:07:15.849Z,100443.28
2022-09-17T05:09:47.710Z,100445.16
2022-09-17T05:12:20.103Z,100434.50
2022-09-17T05:14:52.205Z,100435.53
2022-09-17T05:17:24.076Z,100436.63
2022-09-17T05:19:56.028Z,100433.28
2022-09-17T05:22:27.859Z,100445.16
2022-09-17T05:24:59.788Z,100435.34
2022-09-17T05:27:31.683Z,100429.91
2022-09-17T05:30:04.198Z,100447.28
2022-09-17T05:32:36.817Z,100439.53
2022-09-17T05:35:09.485Z,100451.44
2022-09-17T05:37:41.488Z,100443.53
2022-09-17T05:40:13.704Z,100453.94
2022-09-17T05:42:45.894Z,100448.31
2022-09-17T05:45:17.824Z,100445.59
2022-09-17T05:47:57.811Z,100463.56
2022-09-17T05:50:30.375Z,100455.81
2022-09-17T05:53:15.417Z,100462.09
2022-09-17T05:55:47.626Z,100461.84
2022-09-17T05:58:19.546Z,100454.78
2022-09-17T06:00:51.751Z,100452.28
2022-09-17T06:03:23.767Z,100461.47
2022-09-17T06:06:00.151Z,100467.53
2022-09-17T06:08:35.260Z,100467.28
2022-09-17T06:11:08.164Z,100476.69
2022-09-17T06:13:40.157Z,100485.44
2022-09-17T06:16:12.167Z,100468.72
2022-09-17T06:18:44.139Z,100466.88
2022-09-17T06:21:17.440Z,100467.53
2022-09-17T06:23:52.624Z,100476.94
2022-09-17T06:26:24.549Z,100477.34
2022-09-17T06:28:56.392Z,100477.97
2022-09-17T06:31:28.433Z,100471.09
2022-09-17T06:34:01.660Z,100481.94
2022-09-17T06:36:33.703Z,100482.16
2022-09-17T06:39:06.002Z,100492.16
2022-09-17T06:41:39.025Z,100494.03
2022-09-17T06:44:10.951Z,100495.72
2022-09-17T06:46:44.219Z,100484.88
2022-09-17T06:49:17.634Z,100494.25
2022-09-17T06:51:49.677Z,100495.53
2022-09-17T06:54:21.554Z,100487.38
2022-09-17T06:56:53.467Z,100488.59
2022-09-17T06:59:26.696Z,100494.03
2022-09-17T07:01:58.817Z,100482.97
2022-09-17T07:04:30.714Z,100483.78
2022-09-17T07:07:03.085Z,100494.03
2022-09-17T07:09:35.160Z,100485.00
2022-09-17T07:12:08.325Z,100482.09
2022-09-17T07:14:40.355Z,100487.91
2022-09-17T07:17:12.250Z,100487.28
2022-09-17T07:19:44.196Z,100494.19
2022-09-17T07:22:16.519Z,100494.31
2022-09-17T07:24:48.486Z,100508.50
2022-09-17T07:27:21.775Z,100501.38
2022-09-17T07:29:53.670Z,100504.91
2022-09-17T07:32:25.709Z,100508.44
2022-09-17T07:34:57.745Z,100512.41
2022-09-17T07:37:30.025Z,100507.56
2022-09-17T07:40:02.407Z,100514.22
2022-09-17T07:42:34.427Z,100517.78
2022-09-17T07:45:06.916Z,100504.19
2022-09-17T07:47:40.432Z,100497.03
2022-09-17T07:50:12.315Z,100498.84
2022-09-17T07:52:48.516Z,100501.09
2022-09-17T07:55:20.412Z,100507.72
2022-09-17T07:57:52.795Z,100498.09
2022-09-17T08:00:25.356Z,100500.25
2022-09-17T08:02:57.607Z,100495.56
2022-09-17T08:05:29.617Z,100490.16
2022-09-17T08:08:01.831Z,100494.38
2022-09-17T08:10:33.923Z,100494.09
2022-09-17T08:13:05.824Z,100484.31
2022-09-17T08:15:37.697Z,100486.63
2022-09-17T08:18:09.643Z,100484.66
2022-09-17T08:20:41.590Z,100479.09
2022-09-17T08:23:13.627Z,100480.66
2022-09-17T08:25:52.411Z,100484.06
2022-09-17T08:28:25.626Z,100468.75
2022-09-17T08:31:06.368Z,100476.56
2022-09-17T08:33:39.552Z,100466.94
2022-09-17T08:36:13.335Z,100473.28
2022-09-17T08:38:45.505Z,100475.84
2022-09-17T08:41:34.455Z,100472.44
2022-09-17T08:44:24.565Z,100462.94
2022-09-17T08:47:18.555Z,100463.69
2022-09-17T08:50:00.845Z,100469.78
2022-09-17T08:52:54.789Z,100463.06
2022-09-17T08:55:31.482Z,100450.25
2022-09-17T08:58:11.722Z,100466.84
2022-09-17T09:01:08.338Z,100464.94
2022-09-17T09:04:03.647Z,100465.53
2022-09-17T09:07:07.049Z,100465.09
2022-09-17T09:09:50.456Z,100460.63
2022-09-17T09:12:26.676Z,100456.66
2022-09-17T09:15:02.203Z,100472.47
2022-09-17T09:17:42.845Z,100464.34
2022-09-17T09:20:20.619Z,100453.88
2022-09-17T09:22:53.045Z,100461.56
2022-09-17T09:25:31.674Z,100460.38
2022-09-17T09:28:34.941Z,100468.31
2022-09-17T09:31:31.696Z,100470.88
2022-09-17T09:34:04.516Z,100470.09
2022-09-17T09:36:37.899Z,100469.47
2022-09-17T09:39:21.767Z,100462.38
2022-09-17T09:42:04.293Z,100458.75
2022-09-17T09:44:36.600Z,100466.25
2022-09-17T09:47:41.991Z,100468.91
2022-09-17T09:50:54.760Z,100466.19
2022-09-17T09:53:35.446Z,100467.91
2022-09-17T09:56:19.732Z,100485.75
2022-09-17T09:58:51.692Z,100481.19
2022-09-17T10:01:27.891Z,100465.75
2022-09-17T10:03:59.813Z,100474.97
2022-09-17T10:06:31.647Z,100477.03
2022-09-17T10:09:03.481Z,100472.31
2022-09-17T10:11:35.559Z,100477.53
2022-09-17T10:14:26.362Z,100468.31
2022-09-17T10:17:11.249Z,100472.28
2022-09-17T10:19:44.192Z,100475.03
2022-09-17T10:22:18.934Z,100468.53
2022-09-17T10:24:52.635Z,100462.09
2022-09-17T10:27:25.973Z,100460.47
2022-09-17T10:30:18.285Z,100452.19
2022-09-17T10:33:23.515Z,100448.84
2022-09-17T10:36:15.690Z,100449.28
2022-09-17T10:38:47.644Z,100449.59
2022-09-17T10:41:24.997Z,100456.41
2022-09-17T10:43:57.303Z,100456.88
2022-09-17T10:46:30.971Z,100456.72
2022-09-17T10:49:28.671Z,100455.97
2022-09-17T10:52:06.580Z,100452.19
2022-09-17T10:54:41.373Z,100448.25
2022-09-17T10:57:24.587Z,100438.00
2022-09-17T11:00:09.224Z,100426.69
2022-09-17T11:02:55.324Z,100431.66
2022-09-17T11:05:36.138Z,100431.28
2022-09-17T11:08:17.579Z,100417.66
2022-09-17T11:11:10.887Z,100411.13
2022-09-17T11:14:15.976Z,100438.09
2022-09-17T11:17:09.322Z,100430.84
2022-09-17T11:19:55.579Z,100425.16
2022-09-17T11:23:05.278Z,100418.22
2022-09-17T11:25:40.149Z,100415.78
2022-09-17T11:28:20.335Z,100426.22
2022-09-17T11:31:30.367Z,100422.69
2022-09-17T11:34:18.947Z,100424.72
2022-09-17T11:37:02.768Z,100420.38
2022-09-17T11:39:44.304Z,100418.69
2022-09-17T11:42:20.351Z,100415.50
2022-09-17T11:44:55.973Z,100408.44
2022-09-17T11:47:36.115Z,100413.78
2022-09-17T11:50:21.623Z,100416.50
2022-09-17T11:53:32.275Z,100416.69
2022-09-17T11:56:11.392Z,100425.69
2022-09-17T11:58:48.522Z,100427.00
2022-09-17T12:02:52.503Z,100425.47
2022-09-17T12:05:54.952Z,100433.53
2022-09-17T12:08:44.649Z,100413.31
2022-09-17T12:11:23.105Z,100416.56
2022-09-17T12:13:58.785Z,100404.69
2022-09-17T12:16:39.051Z,100411.69
2022-09-17T12:19:17.078Z,100400.63
2022-09-17T12:21:58.233Z,100403.50
2022-09-17T12:24:31.086Z,100394.47
2022-09-17T12:27:32.777Z,100392.94
2022-09-17T12:30:13.937Z,100391.75
2022-09-17T12:33:00.953Z,100389.59
2022-09-17T12:36:06.750Z,100372.63
2022-09-17T12:38:44.592Z,100372.44
2022-09-17T12:41:18.968Z,100378.41
2022-09-17T12:44:12.300Z,100371.28
2022-09-17T12:47:09.529Z,100360.03
2022-09-17T12:50:08.559Z,100351.34
2022-09-17T12:52:52.716Z,100355.50
2022-09-17T12:55:36.535Z,100364.44
2022-09-17T12:58:12.487Z,100349.56
2022-09-17T13:00:49.445Z,100354.81
2022-09-17T13:03:32.203Z,100355.81
2022-09-17T13:06:28.203Z,100353.16
2022-09-17T13:09:32.433Z,100347.31
2022-09-17T13:12:32.132Z,100333.19
2022-09-17T13:18:26.449Z,100350.63
2022-09-17T13:21:03.259Z,100337.78
2022-09-17T13:23:47.569Z,100339.63
2022-09-17T13:26:21.586Z,100352.81
2022-09-17T13:28:54.061Z,100365.50
2022-09-17T13:31:35.372Z,100352.53
2022-09-17T13:34:19.513Z,100355.56
2022-09-17T13:36:53.022Z,100354.06
2022-09-17T13:39:35.606Z,100359.53
2022-09-17T13:42:08.275Z,100353.53
2022-09-17T13:44:43.265Z,100366.75
2022-09-17T13:47:21.626Z,100362.41
2022-09-17T13:50:07.823Z,100358.75
2022-09-17T13:52:46.078Z,100357.72
2022-09-17T13:55:38.889Z,100348.25
2022-09-17T13:58:31.679Z,100345.59
2022-09-17T14:01:10.850Z,100346.00
2022-09-17T14:03:44.617Z,100344.63
2022-09-17T14:06:21.200Z,100351.88
2022-09-17T14:08:57.832Z,100344.25
2022-09-17T14:11:29.596Z,100348.41
2022-09-17T14:14:10.521Z,100361.78
2022-09-17T14:16:47.858Z,100360.13
2022-09-17T14:19:33.112Z,100373.00
2022-09-17T14:22:07.811Z,100381.19
2022-09-17T14:24:42.460Z,100376.47
2022-09-17T14:27:56.007Z,100382.88
2022-09-17T14:30:30.526Z,100375.34
2022-09-17T14:33:18.012Z,100372.00
2022-09-17T14:35:51.895Z,100374.91
2022-09-17T14:38:46.454Z,100374.25
2022-09-17T14:41:24.081Z,100381.03
2022-09-17T14:44:04.020Z,100412.00
2022-09-17T14:46:48.892Z,100415.06
2022-09-17T14:49:25.815Z,100412.28
2022-09-17T14:51:58.806Z,100420.03
2022-09-17T14:54:35.983Z,100426.38
2022-09-17T14:57:23.910Z,100416.50
2022-09-17T14:59:57.372Z,100416.81
2022-09-17T15:02:38.369Z,100413.91
2022-09-17T15:05:23.255Z,100409.94
2022-09-17T15:08:11.328Z,100418.19
2022-09-17T15:10:48.032Z,100409.78
2022-09-17T15:13:26.154Z,100403.91
2022-09-17T15:16:01.724Z,100418.28
2022-09-17T15:18:38.158Z,100420.75
2022-09-17T15:21:43.267Z,100413.75
2022-09-17T15:24:39.352Z,100416.38
2022-09-17T15:27:23.732Z,100416.22
2022-09-17T15:30:15.990Z,100412.06
2022-09-17T15:32:59.040Z,100415.00
2022-09-17T15:35:33.014Z,100424.22
2022-09-17T15:38:23.712Z,100417.09
2022-09-17T15:41:30.517Z,100435.56
2022-09-17T15:44:33.740Z,100430.13
2022-09-17T15:47:44.266Z,100435.97
2022-09-17T15:50:21.051Z,100433.88
2022-09-17T15:53:10.786Z,100441.00
2022-09-17T15:55:48.438Z,100440.16
2022-09-17T15:58:25.877Z,100442.69
2022-09-17T16:01:29.125Z,100447.66
2022-09-17T16:04:08.054Z,100443.88
2022-09-17T16:06:48.725Z,100446.81
2022-09-17T16:09:37.981Z,100459.44
2022-09-17T16:12:17.811Z,100466.38
2022-09-17T16:14:51.729Z,100464.50
2022-09-17T16:17:41.536Z,100467.44
2022-09-17T16:20:23.486Z,100474.53
2022-09-17T16:22:57.306Z,100479.97
2022-09-17T16:25:29.426Z,100471.81
2022-09-17T16:28:04.496Z,100464.50
2022-09-17T16:30:36.380Z,100478.72
2022-09-17T16:33:11.520Z,100481.19
2022-09-17T16:35:43.904Z,100484.97
2022-09-17T16:38:15.736Z,100472.00
2022-09-17T16:40:47.746Z,100480.38
2022-09-17T16:43:19.665Z,100484.38
2022-09-17T16:46:01.774Z,100486.47
2022-09-17T16:48:34.218Z,100490.50
2022-09-17T16:51:12.773Z,100494.88
2022-09-17T16:53:45.162Z,100496.31
2022-09-17T16:56:17.047Z,100491.31
2022-09-17T16:58:49.187Z,100500.91
2022-09-17T17:01:21.011Z,100500.09
2022-09-17T17:03:54.150Z,100505.53
2022-09-17T17:06:25.941Z,100505.53
2022-09-17T17:09:01.016Z,100507.19
2022-09-17T17:11:33.082Z,100498.44
2022-09-17T17:14:05.496Z,100508.91
2022-09-17T17:16:37.691Z,100505.59
2022-09-17T17:19:09.769Z,100507.31
2022-09-17T17:21:45.225Z,100511.06
2022-09-17T17:24:19.281Z,100504.78
2022-09-17T17:26:51.127Z,100511.69
2022-09-17T17:29:22.906Z,100513.13
2022-09-17T17:31:54.821Z,100506.84
2022-09-17T17:34:26.614Z,100513.97
2022-09-17T17:36:58.819Z,100511.06
2022-09-17T17:39:30.989Z,100513.41
2022-09-17T17:42:02.902Z,100521.16
2022-09-17T17:44:34.841Z,100525.38
2022-09-17T17:47:06.841Z,100513.25
2022-09-17T17:49:38.649Z,100525.41
2022-09-17T17:52:10.469Z,100532.31
2022-09-17T17:54:42.308Z,100539.66
2022-09-17T17:57:14.145Z,100540.72
2022-09-17T17:59:45.972Z,100544.28
2022-09-17T18:02:17.945Z,100548.44
2022-09-17T18:04:49.899Z,100553.25
2022-09-17T18:07:21.699Z,100556.81
2022-09-17T18:09:53.630Z,100559.31
2022-09-17T18:12:27.095Z,100559.31
2022-09-17T18:14:59.158Z,100557.44
2022-09-17T18:17:31.511Z,100558.28
2022-09-17T18:20:04.822Z,100554.72
2022-09-17T18:22:37.036Z,100568.91
2022-09-17T18:25:09.654Z,100568.72
2022-09-17T18:27:42.149Z,100576.47
2022-09-17T18:30:14.537Z,100575.16
2022-09-17T18:32:48.997Z,100565.34
2022-09-17T18:35:20.985Z,100572.25
2022-09-17T18:37:52.839Z,100574.72
2022-09-17T18:40:24.701Z,100576.19
2022-09-17T18:42:56.570Z,100573.03
2022-09-17T18:45:28.390Z,100576.38
2022-09-17T18:48:00.198Z,100578.88
2022-09-17T18:50:32.244Z,100579.72
2022-09-17T18:53:03.998Z,100584.72
2022-09-17T18:55:35.814Z,100589.31
2022-09-17T18:58:07.872Z,100587.66
2022-09-17T19:00:40.814Z,100586.22
2022-09-17T19:03:12.697Z,100586.63
2022-09-17T19:05:44.621Z,100587.91
2022-09-17T19:08:21.685Z,100594.84
2022-09-17T19:10:54.169Z,100596.94
2022-09-17T19:13:27.164Z,100591.09
2022-09-17T19:15:59.654Z,100597.38
2022-09-17T19:18:33.097Z,100603.66
2022-09-17T19:21:07.462Z,100599.88
2022-09-17T19:23:56.997Z,100613.91
2022-09-17T19:26:28.885Z,100608.69
2022-09-17T19:29:00.685Z,100616.22
2022-09-17T19:31:32.679Z,100619.16
2022-09-17T19:34:04.723Z,100623.56
2022-09-17T19:36:36.553Z,100628.63
2022-09-17T19:39:08.417Z,100628.22
2022-09-17T19:41:40.232Z,100631.34
2022-09-17T19:44:12.081Z,100624.47
2022-09-17T19:46:43.991Z,100634.88
2022-09-17T19:49:15.880Z,100636.16
2022-09-17T19:51:47.814Z,100633.84
2022-09-17T19:54:19.664Z,100645.16
2022-09-17T19:56:51.456Z,100635.78
2022-09-17T19:59:23.318Z,100643.28
2022-09-17T20:01:55.154Z,100647.50
2022-09-17T20:04:26.947Z,100641.84
2022-09-17T20:07:01.681Z,100646.03
2022-09-17T20:09:33.507Z,100648.13
2022-09-17T20:12:05.625Z,100656.06
2022-09-17T20:14:37.792Z,100651.91
2022-09-17T20:17:09.705Z,100656.06
2022-09-17T20:19:41.613Z,100656.06
2022-09-17T20:22:13.482Z,100652.75
2022-09-17T20:24:50.262Z,100661.94
2022-09-17T20:27:22.791Z,100651.50
2022-09-17T20:29:54.595Z,100654.22
2022-09-17T20:32:26.391Z,100659.03
2022-09-17T20:34:58.387Z,100660.06
2022-09-17T20:38:18.521Z,100668.44
2022-09-17T20:40:22.079Z,100674.69
2022-09-17T20:42:53.872Z,100668.22
2022-09-17T20:45:25.692Z,100679.72
2022-09-17T20:47:57.677Z,100680.34
2022-09-17T20:50:29.578Z,100689.56
2022-09-17T20:53:01.482Z,100680.34
2022-09-17T20:55:33.462Z,100679.50
2022-09-17T20:58:07.483Z,100683.69
2022-09-17T21:00:42.426Z,100682.00
2022-09-17T21:03:14.848Z,100687.84
2022-09-17T21:05:46.630Z,100699.56
2022-09-17T21:08:18.617Z,100695.81
2022-09-17T21:10:50.366Z,100695.59
2022-09-17T21:13:22.237Z,100702.09
2022-09-17T21:15:58.233Z,100702.09
2022-09-17T21:18:30.491Z,100709.19
2022-09-17T21:21:03.671Z,100709.19
2022-09-17T21:23:38.078Z,100710.84
2022-09-17T21:26:15.358Z,100703.75
2022-09-17T21:28:48.778Z,100714.63
2022-09-17T21:31:31.991Z,100714.63
2022-09-17T21:34:06.976Z,100719.22
2022-09-17T21:36:40.086Z,100718.19
2022-09-17T21:39:14.552Z,100708.56
2022-09-17T21:41:48.016Z,100715.25
2022-09-17T21:44:19.821Z,100714.19
2022-09-17T21:46:56.948Z,100715.88
2022-09-17T21:49:28.935Z,100714.63
2022-09-17T21:52:00.750Z,100717.56
2022-09-17T21:54:32.570Z,100715.66
2022-09-17T21:57:04.663Z,100717.97
2022-09-17T21:59:36.421Z,100718.38
2022-09-17T22:02:08.222Z,100715.44
2022-09-17T22:04:40.121Z,100711.28
2022-09-17T22:07:11.981Z,100711.47
2022-09-17T22:09:44.071Z,100713.34
2022-09-17T22:12:15.847Z,100724.47
2022-09-17T22:14:47.565Z,100725.50
2022-09-17T22:17:19.657Z,100718.38
2022-09-17T22:19:51.512Z,100734.25
2022-09-17T22:22:23.315Z,100720.25
2022-09-17T22:24:55.120Z,100720.47
2022-09-17T22:27:26.985Z,100725.91
2022-09-17T22:29:59.004Z,100719.66
2022-09-17T22:32:30.878Z,100712.53
2022-09-17T22:35:02.680Z,100718.38
2022-09-17T22:37:34.814Z,100717.34
2022-09-17T22:40:07.264Z,100717.97
2022-09-17T22:42:39.116Z,100726.13
2022-09-17T22:45:10.953Z,100726.72
2022-09-17T22:47:42.785Z,100718.81
2022-09-17T22:50:14.591Z,100722.16
2022-09-17T22:52:49.361Z,100719.22
2022-09-17T22:55:21.164Z,100713.34
2022-09-17T22:57:52.971Z,100712.31
2022-09-17T23:00:24.890Z,100708.34
2022-09-17T23:02:56.763Z,100710.03
2022-09-17T23:05:29.353Z,100715.44
2022-09-17T23:08:01.311Z,100699.34
2022-09-17T23:10:35.969Z,100712.09
2022-09-17T23:13:09.230Z,100699.59
2022-09-17T23:15:41.062Z,100705.63
2022-09-17T23:18:13.057Z,100700.41
2022-09-17T23:20:45.131Z,100699.59
2022-09-17T23:23:19.489Z,100694.16
2022-09-17T23:25:54.518Z,100702.06
2022-09-17T23:28:26.323Z,100698.31
2022-09-17T23:30:58.233Z,100694.16
2022-09-17T23:33:30.040Z,100702.72
2022-09-17T23:36:25.348Z,100702.28
2022-09-17T23:38:58.037Z,100690.16
2022-09-17T23:41:34.639Z,100688.91
2022-09-17T23:44:13.759Z,100694.13
2022-09-17T23:46:47.100Z,100691.63
2022-09-17T23:49:18.940Z,100687.44
2022-09-17T23:51:50.684Z,100683.47
2022-09-17T23:54:22.541Z,100692.03
2022-09-17T23:56:54.595Z,100687.00
2022-09-17T23:59:26.446Z,100689.91
